createdAt,value
2022-07-31T00:04:58.182Z,7.65
2022-07-31T00:10:03.074Z,6.18
2022-07-31T00:15:10.054Z,8.18
2022-07-31T00:20:15.727Z,7.43
2022-07-31T00:25:20.542Z,7.60
2022-07-31T00:30:24.063Z,6.75
2022-07-31T00:35:27.585Z,5.57
2022-07-31T00:40:32.735Z,6.63
2022-07-31T00:45:36.319Z,7.38
2022-07-31T00:50:41.047Z,5.47
2022-07-31T00:55:51.955Z,5.93
2022-07-31T01:00:55.866Z,5.38
2022-07-31T01:05:59.396Z,4.93
2022-07-31T01:11:08.030Z,5.47
2022-07-31T01:16:19.292Z,9.77
2022-07-31T01:21:30.386Z,7.00
2022-07-31T01:31:46.541Z,9.80
2022-07-31T01:36:58.113Z,8.18
2022-07-31T01:42:04.846Z,7.38
2022-07-31T01:47:12.806Z,7.85
2022-07-31T01:52:17.820Z,7.70
2022-07-31T01:57:24.696Z,6.18
2022-07-31T02:02:32.715Z,7.25
2022-07-31T02:07:39.119Z,8.00
2022-07-31T02:12:44.452Z,6.80
2022-07-31T02:17:51.350Z,8.30
2022-07-31T02:23:30.449Z,6.20
2022-07-31T02:28:36.460Z,7.53
2022-07-31T02:33:44.458Z,6.57
2022-07-31T02:38:49.693Z,8.20
2022-07-31T02:43:54.751Z,6.13
2022-07-31T02:49:03.287Z,6.18
2022-07-31T02:54:07.158Z,5.25
2022-07-31T02:59:11.125Z,6.35
2022-07-31T03:04:35.823Z,8.43
2022-07-31T03:09:39.387Z,7.18
2022-07-31T03:15:03.472Z,5.80
2022-07-31T03:20:12.383Z,7.10
2022-07-31T03:25:21.890Z,7.72
2022-07-31T03:35:34.803Z,10.38
2022-07-31T03:45:47.905Z,8.82
2022-07-31T03:50:53.976Z,10.55
2022-07-31T03:55:58.632Z,10.52
2022-07-31T04:01:03.220Z,12.55
2022-07-31T04:06:11.176Z,9.95
2022-07-31T04:11:14.849Z,11.73
2022-07-31T04:16:18.336Z,14.48
2022-07-31T04:21:23.184Z,10.27
2022-07-31T04:26:27.572Z,11.52
2022-07-31T04:31:36.229Z,14.07
2022-07-31T04:36:43.055Z,12.05
2022-07-31T04:41:46.685Z,26.27
2022-07-31T04:46:50.413Z,15.50
2022-07-31T04:51:55.525Z,15.27
2022-07-31T04:56:59.225Z,17.40
2022-07-31T05:02:04.280Z,16.67
2022-07-31T05:07:09.489Z,14.48
2022-07-31T05:12:12.949Z,14.95
2022-07-31T05:17:17.205Z,16.33
2022-07-31T05:22:48.008Z,16.17
2022-07-31T05:28:28.254Z,18.42
2022-07-31T05:33:34.427Z,18.60
2022-07-31T05:38:40.185Z,20.52
2022-07-31T05:44:18.658Z,19.13
2022-07-31T05:49:26.677Z,15.98
2022-07-31T05:54:33.619Z,17.50
2022-07-31T06:00:17.620Z,17.23
2022-07-31T06:05:22.048Z,25.58
2022-07-31T06:10:27.525Z,18.95
2022-07-31T06:15:35.890Z,18.63
2022-07-31T06:20:40.043Z,18.20
2022-07-31T06:25:45.026Z,19.63
2022-07-31T06:30:51.258Z,17.40
2022-07-31T06:35:55.114Z,23.90
2022-07-31T06:41:48.209Z,20.48
2022-07-31T06:47:07.228Z,25.65
2022-07-31T06:52:39.841Z,21.25
2022-07-31T06:57:44.738Z,19.50
2022-07-31T07:02:48.838Z,24.92
2022-07-31T07:07:52.739Z,25.20
2022-07-31T07:12:57.745Z,18.73
2022-07-31T07:18:01.690Z,21.40
2022-07-31T07:23:11.774Z,21.42
2022-07-31T07:28:30.549Z,20.92
2022-07-31T07:33:41.856Z,20.42
2022-07-31T07:38:50.084Z,20.17
2022-07-31T07:43:56.415Z,14.98
2022-07-31T07:49:04.031Z,16.40
2022-07-31T07:54:22.732Z,17.30
2022-07-31T07:59:46.512Z,18.50
2022-07-31T08:05:10.405Z,19.15
2022-07-31T08:10:19.133Z,19.63
2022-07-31T08:15:44.190Z,15.50
2022-07-31T08:21:00.183Z,18.85
2022-07-31T08:26:06.675Z,17.50
2022-07-31T08:31:11.947Z,17.35
2022-07-31T08:36:28.480Z,23.63
2022-07-31T08:41:33.643Z,17.05
2022-07-31T08:46:41.092Z,20.40
2022-07-31T08:51:51.650Z,16.35
2022-07-31T08:57:31.645Z,14.15
2022-07-31T09:02:36.607Z,17.55
2022-07-31T09:07:58.811Z,19.15
2022-07-31T09:13:13.856Z,18.00
2022-07-31T09:18:24.665Z,16.17
2022-07-31T09:23:47.060Z,16.88
2022-07-31T09:28:51.991Z,16.23
2022-07-31T09:33:56.996Z,17.42
2022-07-31T09:39:26.983Z,18.55
2022-07-31T09:44:48.704Z,21.38
2022-07-31T09:49:59.714Z,19.80
2022-07-31T09:55:15.987Z,20.27
2022-07-31T10:00:22.294Z,21.20
2022-07-31T10:05:28.970Z,20.80
2022-07-31T10:10:37.365Z,20.85
2022-07-31T10:16:04.604Z,20.88
2022-07-31T10:21:34.949Z,26.48
2022-07-31T10:27:00.421Z,22.52
2022-07-31T10:32:05.166Z,24.55
2022-07-31T10:37:16.315Z,23.83
2022-07-31T10:42:45.001Z,23.35
2022-07-31T10:47:56.067Z,25.50
2022-07-31T10:53:21.013Z,24.25
2022-07-31T10:58:49.177Z,18.88
2022-07-31T11:04:15.484Z,24.70
2022-07-31T11:09:51.245Z,23.83
2022-07-31T11:15:24.401Z,22.45
2022-07-31T11:20:48.011Z,23.20
2022-07-31T11:25:52.889Z,22.58
2022-07-31T11:30:57.902Z,21.58
2022-07-31T11:36:07.628Z,20.83
2022-07-31T11:41:14.897Z,22.45
2022-07-31T11:46:26.181Z,20.15
2022-07-31T11:51:31.020Z,21.05
2022-07-31T11:56:35.909Z,19.55
2022-07-31T12:01:40.601Z,16.52
2022-07-31T12:06:44.511Z,17.20
2022-07-31T12:11:49.428Z,16.45
2022-07-31T12:16:52.892Z,14.30
2022-07-31T12:21:56.713Z,14.27
2022-07-31T12:27:02.398Z,14.80
2022-07-31T12:32:07.272Z,17.05
2022-07-31T12:37:12.566Z,12.95
2022-07-31T12:42:30.804Z,15.23
2022-07-31T12:47:35.917Z,15.35
2022-07-31T12:52:39.437Z,12.80
2022-07-31T12:57:51.788Z,12.40
2022-07-31T13:02:57.121Z,13.48
2022-07-31T13:08:00.614Z,10.07
2022-07-31T13:13:05.398Z,11.05
2022-07-31T13:18:09.157Z,9.88
2022-07-31T13:23:12.610Z,9.98
2022-07-31T13:28:17.513Z,13.13
2022-07-31T13:33:21.036Z,11.95
2022-07-31T13:38:24.584Z,12.20
2022-07-31T13:43:29.428Z,11.27
2022-07-31T13:48:33.368Z,10.38
2022-07-31T13:53:36.882Z,14.15
2022-07-31T13:58:41.723Z,11.30
2022-07-31T14:03:45.180Z,11.60
2022-07-31T14:08:49.877Z,8.65
2022-07-31T14:13:55.553Z,10.93
2022-07-31T14:19:01.495Z,12.68
2022-07-31T14:24:05.633Z,11.93
2022-07-31T14:29:10.495Z,11.32
2022-07-31T14:34:14.006Z,8.40
2022-07-31T14:39:17.734Z,10.35
2022-07-31T14:44:23.956Z,8.13
2022-07-31T14:50:06.836Z,10.13
2022-07-31T14:54:56.613Z,7.85
2022-07-31T15:00:01.484Z,10.30
2022-07-31T15:06:40.847Z,10.68
2022-07-31T15:10:29.196Z,7.13
2022-07-31T15:15:34.502Z,5.95
2022-07-31T15:20:37.948Z,12.02
2022-07-31T15:25:41.427Z,10.00
2022-07-31T15:30:46.266Z,9.60
2022-07-31T15:35:49.884Z,8.27
2022-07-31T15:40:53.398Z,6.53
2022-07-31T15:46:01.968Z,6.57
2022-07-31T15:51:09.004Z,6.90
2022-07-31T15:56:12.593Z,5.63
2022-07-31T16:01:17.481Z,5.20
2022-07-31T16:06:21.128Z,5.82
2022-07-31T16:12:04.076Z,5.40
2022-07-31T16:16:56.881Z,8.13
2022-07-31T16:22:01.009Z,6.68
2022-07-31T16:27:04.968Z,6.15
2022-07-31T16:32:10.172Z,9.35
2022-07-31T16:37:13.726Z,7.68
2022-07-31T16:42:17.428Z,7.70
2022-07-31T16:47:45.729Z,8.85
2022-07-31T16:52:45.894Z,7.35
2022-07-31T16:57:49.390Z,10.02
2022-07-31T17:02:54.341Z,11.77
2022-07-31T17:07:57.804Z,11.07
2022-07-31T17:13:01.369Z,9.63
2022-07-31T17:18:06.466Z,9.95
2022-07-31T17:23:09.940Z,12.50
2022-07-31T17:28:15.389Z,10.65
2022-07-31T17:33:20.380Z,16.63
2022-07-31T17:38:43.911Z,10.65
2022-07-31T17:43:50.360Z,11.43
2022-07-31T17:48:58.020Z,12.85
2022-07-31T17:54:01.674Z,13.13
2022-07-31T17:59:05.816Z,12.68
2022-07-31T18:04:10.827Z,14.25
2022-07-31T18:09:20.635Z,15.53
2022-07-31T18:14:24.930Z,17.42
2022-07-31T18:19:30.040Z,12.52
2022-07-31T18:24:33.498Z,11.48
2022-07-31T18:29:36.983Z,13.30
2022-07-31T18:34:41.806Z,12.93
2022-07-31T18:39:48.614Z,10.85
2022-07-31T18:44:52.953Z,12.15
2022-07-31T18:51:00.751Z,13.20
2022-07-31T18:55:21.401Z,10.80
2022-07-31T19:00:24.990Z,11.45
2022-07-31T19:05:30.163Z,12.02
2022-07-31T19:10:33.632Z,23.02
2022-07-31T19:15:37.838Z,14.27
2022-07-31T19:20:58.824Z,13.85
2022-07-31T19:26:08.823Z,13.88
2022-07-31T19:31:13.584Z,13.00
2022-07-31T19:36:18.472Z,15.70
2022-07-31T19:41:22.350Z,12.48
2022-07-31T19:46:25.915Z,18.08
2022-07-31T19:51:31.327Z,16.48
2022-07-31T19:56:35.049Z,12.25
2022-07-31T20:01:38.563Z,13.70
2022-07-31T20:06:43.498Z,12.48
2022-07-31T20:11:47.812Z,18.98
2022-07-31T20:16:51.279Z,19.83
2022-07-31T20:21:57.531Z,17.13
2022-07-31T20:27:00.984Z,19.38
2022-07-31T20:32:05.061Z,24.48
2022-07-31T20:37:10.068Z,27.00
2022-07-31T20:42:13.542Z,15.40
2022-07-31T20:47:19.576Z,18.70
2022-07-31T20:52:26.426Z,17.55
2022-07-31T20:57:29.931Z,17.35
2022-07-31T21:02:33.447Z,17.58
2022-07-31T21:07:38.336Z,16.88
2022-07-31T21:12:41.811Z,17.17
2022-07-31T21:17:45.324Z,20.13
2022-07-31T21:22:50.137Z,14.30
2022-07-31T21:27:54.399Z,23.98
2022-07-31T21:32:58.249Z,20.25
2022-07-31T21:38:04.308Z,20.63
2022-07-31T21:43:08.597Z,20.67
2022-07-31T21:48:13.772Z,22.27
2022-07-31T21:53:18.641Z,18.02
2022-07-31T21:58:22.107Z,21.35
2022-07-31T22:03:26.395Z,23.65
2022-07-31T22:08:31.274Z,19.00
2022-07-31T22:13:34.757Z,23.52
2022-07-31T22:18:38.730Z,25.50
2022-07-31T22:23:43.907Z,28.23
2022-07-31T22:28:48.494Z,17.40
2022-07-31T22:33:52.372Z,23.13
2022-07-31T22:38:58.096Z,21.70
2022-07-31T22:44:13.389Z,25.10
2022-07-31T22:49:19.927Z,21.02
2022-07-31T22:54:24.775Z,18.88
2022-07-31T22:59:28.228Z,22.63
2022-07-31T23:04:31.743Z,22.23
2022-07-31T23:09:36.690Z,19.10
2022-07-31T23:14:40.173Z,19.27
2022-07-31T23:19:43.950Z,15.10
2022-07-31T23:24:57.600Z,20.08
2022-07-31T23:30:01.291Z,18.38
2022-07-31T23:35:05.129Z,13.63
2022-07-31T23:40:11.577Z,15.15
2022-07-31T23:45:15.002Z,14.02
2022-07-31T23:50:19.178Z,11.63
2022-07-31T23:55:24.175Z,13.95
